Time;durP1;ratioP1;P1;durP2;ratioP2;P2;SDS_P1;SDS_P2;PMS_P1;PMS_P2;Temp;Humidity;BMP_temperature;BMP_pressure;BME280_temperature;BME280_humidity;BME280_pressure;Samples;Min_cycle;Max_cycle;Signal;HPM_P1;HPM_P2
2021/12/09 00:01:38;;;;;;;122.10;80.45;;;;;;;2.39;64.19;94155.22;5065192;28;20835;-74
2021/12/09 00:04:06;;;;;;;96.47;64.97;;;;;;;1.62;65.69;94159.53;5064941;28;20151;-75
2021/12/09 00:06:35;;;;;;;109.47;69.93;;;;;;;1.31;67.43;94171.06;5065043;28;20191;-75
2021/12/09 00:09:05;;;;;;;104.70;69.47;;;;;;;1.91;65.45;94151.47;5064951;28;20167;-75
2021/12/09 00:11:31;;;;;;;106.63;69.68;;;;;;;1.99;65.31;94141.16;5063509;28;20288;-75
2021/12/09 00:13:57;;;;;;;97.20;63.93;;;;;;;2.12;65.04;94145.91;5064930;28;20193;-74
2021/12/09 00:16:22;;;;;;;100.28;67.55;;;;;;;2.10;65.11;94140.91;5064836;28;20175;-75
2021/12/09 00:18:48;;;;;;;109.97;66.47;;;;;;;2.33;64.95;94143.75;5064797;28;20250;-75
2021/12/09 00:21:14;;;;;;;103.30;65.47;;;;;;;2.35;64.31;94141.00;5064987;28;20173;-75
2021/12/09 00:23:40;;;;;;;105.90;66.97;;;;;;;2.39;64.62;94139.75;5065139;28;20178;-76
2021/12/09 00:26:06;;;;;;;107.77;70.40;;;;;;;2.48;64.29;94132.81;5066109;28;20896;-76
2021/12/09 00:28:31;;;;;;;108.82;72.40;;;;;;;2.74;63.07;94135.28;5068905;28;20468;-75
2021/12/09 00:30:57;;;;;;;95.80;60.20;;;;;;;2.94;62.48;94141.00;5068710;28;20665;-75
2021/12/09 00:33:23;;;;;;;92.37;56.63;;;;;;;2.41;65.18;94124.91;5068588;28;20173;-75
2021/12/09 00:35:56;;;;;;;96.40;58.83;;;;;;;1.76;67.59;94122.84;5068580;28;20629;-75
2021/12/09 00:38:44;;;;;;;86.97;57.38;;;;;;;2.19;65.88;94115.16;5067545;28;20167;-75
2021/12/09 00:41:14;;;;;;;94.72;57.00;;;;;;;1.93;67.58;94110.84;5068421;28;20273;-75
2021/12/09 00:43:41;;;;;;;63.42;38.83;;;;;;;2.19;65.80;94115.16;5068321;28;20175;-74
2021/12/09 00:46:08;;;;;;;81.75;51.28;;;;;;;2.08;66.41;94098.97;5068326;28;20210;-75
2021/12/09 00:48:34;;;;;;;76.15;50.35;;;;;;;2.19;66.76;94104.81;5068085;28;20173;-75
2021/12/09 00:51:01;;;;;;;69.10;47.03;;;;;;;2.25;66.26;94111.94;5068141;28;20209;-74
2021/12/09 00:53:27;;;;;;;87.10;50.03;;;;;;;2.46;66.24;94114.88;5067998;28;20170;-75
2021/12/09 00:55:53;;;;;;;71.00;45.03;;;;;;;2.69;65.28;94119.47;5067998;28;20170;-75
2021/12/09 00:58:20;;;;;;;62.42;40.13;;;;;;;2.81;64.19;94113.03;5067943;28;20420;-74
2021/12/09 01:00:46;;;;;;;63.13;36.70;;;;;;;2.38;65.12;94112.28;5067984;28;20163;-74
2021/12/09 01:03:13;;;;;;;51.28;31.10;;;;;;;2.49;65.03;94109.41;5068249;28;20474;-74
2021/12/09 01:05:39;;;;;;;47.38;34.58;;;;;;;2.40;65.11;94112.94;5067874;28;20179;-75
2021/12/09 01:08:06;;;;;;;56.33;35.03;;;;;;;2.51;65.26;94119.59;5068048;28;20227;-74
2021/12/09 01:10:33;;;;;;;51.78;35.60;;;;;;;2.62;65.14;94123.63;5067705;28;20246;-74
2021/12/09 01:12:58;;;;;;;52.47;32.53;;;;;;;2.70;65.02;94126.25;5067602;28;20197;-74
2021/12/09 01:15:25;;;;;;;41.50;32.03;;;;;;;2.75;65.02;94126.56;5067866;28;20166;-74
2021/12/09 01:17:51;;;;;;;48.47;31.67;;;;;;;2.69;65.31;94124.63;5067578;28;20166;-75
2021/12/09 01:20:22;;;;;;;45.33;28.33;;;;;;;2.78;65.23;94118.50;5067909;28;20143;-74
2021/12/09 01:22:47;;;;;;;41.65;26.75;;;;;;;2.96;63.54;94109.78;5068133;28;20166;-74
2021/12/09 01:25:16;;;;;;;46.00;28.70;;;;;;;2.74;64.23;94118.00;5068130;28;20167;-74
2021/12/09 01:27:44;;;;;;;42.85;29.08;;;;;;;2.83;64.91;94115.47;5068016;28;20162;-74
2021/12/09 01:30:15;;;;;;;53.83;33.92;;;;;;;2.96;64.29;94109.78;5067765;28;20182;-74
2021/12/09 01:32:47;;;;;;;93.63;59.00;;;;;;;2.13;65.76;94122.53;5068095;28;20166;-75
2021/12/09 01:35:13;;;;;;;87.50;58.10;;;;;;;2.48;64.98;94114.72;5066584;28;20176;-75
2021/12/09 01:37:39;;;;;;;93.80;59.47;;;;;;;2.66;64.28;94122.38;5065241;28;20527;-74
2021/12/09 01:40:07;;;;;;;110.85;66.78;;;;;;;2.29;65.06;94126.13;5067689;28;20277;-74
2021/12/09 01:42:32;;;;;;;102.97;63.60;;;;;;;2.58;64.67;94122.34;5068164;28;20173;-74
2021/12/09 01:44:58;;;;;;;103.30;62.50;;;;;;;2.74;64.29;94117.22;5067625;28;20235;-74
2021/12/09 01:47:23;;;;;;;94.37;66.33;;;;;;;2.68;64.31;94112.69;5067874;28;20163;-74
2021/12/09 01:49:49;;;;;;;98.13;60.50;;;;;;;2.86;63.58;94104.78;5067380;28;20205;-74
2021/12/09 01:52:15;;;;;;;95.77;61.37;;;;;;;2.77;64.77;94106.56;5073928;28;20285;-75
2021/12/09 01:54:41;;;;;;;106.23;68.40;;;;;;;2.82;64.21;94103.50;5070540;28;20230;-75
2021/12/09 01:57:07;;;;;;;99.47;66.93;;;;;;;2.88;63.98;94108.84;5070009;28;20435;-74
2021/12/09 01:59:33;;;;;;;101.10;62.80;;;;;;;3.04;63.48;94112.41;5068677;28;20685;-74
2021/12/09 02:01:58;;;;;;;103.17;62.67;;;;;;;2.81;63.66;94109.63;5067326;28;20420;-74
2021/12/09 02:04:24;;;;;;;97.40;63.70;;;;;;;2.99;63.74;94110.28;5072368;28;20421;-74
2021/12/09 02:06:49;;;;;;;102.57;65.20;;;;;;;3.02;63.82;94099.63;5069029;28;20171;-74
2021/12/09 02:09:17;;;;;;;97.20;64.87;;;;;;;3.05;63.68;94106.25;5069523;28;20178;-74
2021/12/09 02:11:42;;;;;;;108.82;66.95;;;;;;;2.95;63.71;94097.84;5069015;28;20256;-75
2021/12/09 02:14:08;;;;;;;98.17;65.17;;;;;;;2.99;63.10;94099.16;5067266;28;20167;-75
2021/12/09 02:16:35;;;;;;;91.97;64.07;;;;;;;3.22;63.37;94099.28;5069189;28;20170;-77
2021/12/09 02:19:01;;;;;;;91.85;61.80;;;;;;;3.22;63.15;94099.28;5068595;28;20564;-74
2021/12/09 02:21:30;;;;;;;93.90;62.63;;;;;;;3.32;63.30;94105.94;5065879;28;20209;-76
2021/12/09 02:24:00;;;;;;;99.30;63.20;;;;;;;3.37;62.81;94108.00;5066592;28;20409;-74
2021/12/09 02:26:30;;;;;;;93.83;59.80;;;;;;;3.30;62.63;94114.78;5072365;28;20413;-75
2021/12/09 02:28:56;;;;;;;104.10;61.73;;;;;;;3.25;63.24;94125.63;5071512;28;20404;-74
2021/12/09 02:31:23;;;;;;;88.57;59.63;;;;;;;3.40;63.60;94125.78;5072938;28;20471;-74
2021/12/09 02:33:49;;;;;;;100.03;59.57;;;;;;;3.47;62.27;94118.19;5071959;28;20433;-74
2021/12/09 02:36:15;;;;;;;96.18;59.50;;;;;;;3.26;63.05;94122.09;5072615;28;20447;-75
2021/12/09 02:38:44;;;;;;;94.87;59.23;;;;;;;3.20;63.25;94114.16;5070296;28;20170;-75
2021/12/09 02:41:15;;;;;;;85.93;54.23;;;;;;;3.38;62.69;94111.41;5066801;28;20413;-74
2021/12/09 02:43:42;;;;;;;89.20;61.20;;;;;;;2.39;65.72;94110.50;5067114;28;20468;-74
2021/12/09 02:46:08;;;;;;;90.17;59.40;;;;;;;2.93;63.26;94103.97;5064720;28;20417;-74
2021/12/09 02:48:34;;;;;;;91.20;58.07;;;;;;;2.73;63.58;94113.00;5069806;28;20471;-74
2021/12/09 02:51:01;;;;;;;89.70;59.73;;;;;;;3.01;63.32;94102.38;5066266;28;20197;-74
2021/12/09 02:53:27;;;;;;;95.22;60.30;;;;;;;3.00;63.59;94090.41;5068304;28;20413;-73
2021/12/09 02:55:54;;;;;;;91.30;60.47;;;;;;;2.92;64.10;94104.97;5066926;28;20166;-74
2021/12/09 02:58:19;;;;;;;97.67;56.50;;;;;;;3.23;63.00;94101.72;5066907;28;20413;-73
2021/12/09 03:00:54;;;;;;;80.40;55.53;;;;;;;3.14;62.87;94107.88;5066974;28;20997;-74
2021/12/09 03:03:20;;;;;;;84.03;54.70;;;;;;;3.10;63.67;94106.56;5067627;28;20170;-75
2021/12/09 03:05:46;;;;;;;86.57;58.37;;;;;;;2.74;64.80;94122.38;5066601;28;20412;-74
2021/12/09 03:08:18;;;;;;;82.00;55.78;;;;;;;3.00;63.74;94111.09;5065620;28;20186;-74
2021/12/09 03:10:43;;;;;;;82.60;56.50;;;;;;;3.16;62.81;94116.25;5071978;28;20194;-74
2021/12/09 03:13:10;;;;;;;85.67;56.37;;;;;;;3.29;62.93;94110.63;5066428;28;20485;-74
2021/12/09 03:15:36;;;;;;;86.50;56.85;;;;;;;3.05;62.55;94103.66;5066809;28;20166;-75
2021/12/09 03:18:02;;;;;;;84.40;56.23;;;;;;;2.84;63.63;94107.53;5066240;28;20266;-75
2021/12/09 03:20:27;;;;;;;84.80;54.97;;;;;;;3.06;62.97;94110.47;5067691;28;20510;-74
2021/12/09 03:22:53;;;;;;;80.43;52.10;;;;;;;2.94;63.24;94107.41;5067340;28;20170;-74
2021/12/09 03:25:20;;;;;;;90.17;56.17;;;;;;;2.21;65.26;94114.00;5068710;28;20170;-74
2021/12/09 03:27:47;;;;;;;93.45;53.20;;;;;;;1.63;67.23;94112.97;5068657;28;20167;-74
2021/12/09 03:30:16;;;;;;;80.95;51.22;;;;;;;2.25;65.60;94119.69;5068140;28;20166;-75
2021/12/09 03:32:42;;;;;;;93.05;55.42;;;;;;;2.59;64.62;94126.56;5068458;28;20265;-74
2021/12/09 03:35:08;;;;;;;88.07;52.35;;;;;;;2.59;64.41;94118.81;5066759;28;20171;-74
2021/12/09 03:37:34;;;;;;;88.25;55.40;;;;;;;2.98;63.59;94120.78;5065878;28;20166;-74
2021/12/09 03:40:00;;;;;;;96.10;58.80;;;;;;;2.61;62.94;94116.88;5066510;28;20177;-74
2021/12/09 03:42:28;;;;;;;89.97;59.17;;;;;;;2.44;64.03;94114.25;5067476;28;20427;-74
2021/12/09 03:44:55;;;;;;;93.28;58.33;;;;;;;2.53;63.76;94110.72;5066361;28;20630;-74
2021/12/09 03:47:25;;;;;;;95.32;57.78;;;;;;;2.64;63.93;94113.97;5067391;28;20186;-74
2021/12/09 03:49:51;;;;;;;86.28;60.13;;;;;;;2.84;63.64;94102.34;5065554;28;20175;-74
2021/12/09 03:52:17;;;;;;;93.83;60.40;;;;;;;2.97;63.26;94104.47;5067061;28;20799;-74
2021/12/09 03:54:44;;;;;;;87.87;58.80;;;;;;;2.78;63.57;94113.34;5067610;28;20178;-74
2021/12/09 03:57:10;;;;;;;101.55;60.22;;;;;;;2.95;63.36;94114.16;5065439;28;20233;-74
2021/12/09 03:59:36;;;;;;;88.07;61.08;;;;;;;2.76;63.28;94128.19;5065453;28;20267;-75
2021/12/09 04:02:03;;;;;;;92.68;58.42;;;;;;;2.60;64.45;94126.41;5068532;28;20636;-74
2021/12/09 04:04:28;;;;;;;96.90;61.13;;;;;;;2.79;63.37;94137.38;5069250;28;20182;-75
2021/12/09 04:06:54;;;;;;;85.77;57.77;;;;;;;2.89;63.48;94123.38;5069512;28;20166;-74
2021/12/09 04:09:22;;;;;;;94.10;60.13;;;;;;;3.02;63.33;94122.09;5069210;28;20568;-75
2021/12/09 04:11:48;;;;;;;101.28;62.17;;;;;;;3.05;63.61;94122.56;5069347;28;20205;-74
2021/12/09 04:14:14;;;;;;;94.60;57.63;;;;;;;3.18;62.95;94124.66;5067848;28;20207;-74
2021/12/09 04:16:40;;;;;;;101.10;60.72;;;;;;;3.17;63.27;94130.81;5068985;28;20428;-74
2021/12/09 04:19:08;;;;;;;93.27;57.20;;;;;;;3.53;61.93;94135.66;5067518;28;20230;-74
2021/12/09 04:21:35;;;;;;;93.47;57.80;;;;;;;3.92;60.22;94140.09;5069032;28;20420;-75
2021/12/09 04:24:07;;;;;;;96.13;58.97;;;;;;;3.21;62.68;94134.69;5068877;28;20413;-74
2021/12/09 04:26:36;;;;;;;95.32;58.38;;;;;;;3.27;62.51;94134.03;5067654;28;20480;-74
2021/12/09 04:29:04;;;;;;;84.68;54.45;;;;;;;3.15;63.63;94119.84;5069130;28;20170;-73
2021/12/09 04:31:30;;;;;;;88.77;56.07;;;;;;;3.26;63.42;94122.09;5068865;28;20205;-74
2021/12/09 04:33:55;;;;;;;81.70;53.43;;;;;;;3.23;62.97;94130.16;5068696;28;20927;-74
2021/12/09 04:36:21;;;;;;;90.27;55.90;;;;;;;3.48;61.81;94140.50;5068663;28;20174;-74
2021/12/09 04:38:48;;;;;;;91.27;58.07;;;;;;;3.24;62.96;94131.75;5067342;28;20258;-74
2021/12/09 04:41:15;;;;;;;89.43;57.30;;;;;;;3.43;63.08;94138.38;5068682;28;20416;-75
2021/12/09 04:43:42;;;;;;;97.20;55.55;;;;;;;3.60;62.55;94144.34;5069103;28;21019;-76
2021/12/09 04:46:09;;;;;;;90.43;58.80;;;;;;;3.57;62.72;94134.34;5068865;28;20351;-75
2021/12/09 04:48:35;;;;;;;99.53;58.00;;;;;;;3.62;62.15;94142.41;5068606;28;20417;-75
2021/12/09 04:51:01;;;;;;;81.87;56.57;;;;;;;3.44;63.18;94137.41;5068361;28;20455;-75
2021/12/09 04:53:26;;;;;;;85.47;55.60;;;;;;;3.54;62.92;94155.34;5068391;28;20181;-76
2021/12/09 04:55:52;;;;;;;95.27;55.70;;;;;;;3.48;63.28;94153.44;5068433;28;20171;-74
2021/12/09 04:58:17;;;;;;;75.93;49.97;;;;;;;3.59;62.87;94150.50;5068226;28;20170;-74
2021/12/09 05:00:43;;;;;;;76.97;49.10;;;;;;;3.53;63.12;94143.41;5068098;28;20167;-75
2021/12/09 05:03:12;;;;;;;70.67;46.37;;;;;;;3.65;63.61;94138.69;5068180;28;20181;-76
2021/12/09 05:05:46;;;;;;;75.33;43.20;;;;;;;3.62;63.58;94147.56;5067922;28;20407;-75
2021/12/09 05:08:14;;;;;;;81.20;50.23;;;;;;;3.63;63.31;94154.38;5066698;28;20397;-75
2021/12/09 05:11:01;;;;;;;70.57;47.03;;;;;;;3.58;63.28;94155.84;5066571;28;20514;-74
2021/12/09 05:13:28;;;;;;;67.10;37.53;;;;;;;4.14;61.76;94155.91;5067979;28;20516;-74
2021/12/09 05:15:56;;;;;;;45.90;29.03;;;;;;;3.27;64.61;94156.50;5068069;28;20756;-75
2021/12/09 05:18:24;;;;;;;37.77;23.10;;;;;;;2.92;65.76;94166.16;5067769;28;20461;-75
2021/12/09 05:20:50;;;;;;;48.40;25.77;;;;;;;2.88;66.09;94159.69;5067492;28;20892;-75
2021/12/09 05:23:18;;;;;;;58.08;37.80;;;;;;;3.08;65.54;94155.03;5067908;28;20637;-75
2021/12/09 05:25:44;;;;;;;66.05;40.75;;;;;;;3.11;65.58;94157.28;5067913;28;20238;-75
2021/12/09 05:28:11;;;;;;;67.63;38.75;;;;;;;3.07;65.91;94158.59;5067604;28;20171;-75
2021/12/09 05:32:07;;;;;;;49.13;26.25;;;;;;;2.89;65.91;94161.31;5067754;28;20186;-74
2021/12/09 05:33:22;;;;;;;57.67;33.03;;;;;;;2.69;67.20;94158.19;5067728;28;20240;-75
2021/12/09 05:35:48;;;;;;;66.03;36.80;;;;;;;2.26;69.54;94154.88;5067454;28;20167;-75
2021/12/09 05:38:13;;;;;;;57.83;35.37;;;;;;;2.95;67.50;94155.50;5067646;28;20186;-75
2021/12/09 05:40:39;;;;;;;55.17;33.80;;;;;;;3.13;66.51;94152.78;5067406;28;20174;-75
2021/12/09 05:43:04;;;;;;;17.13;14.10;;;;;;;2.85;66.34;94152.28;5067700;28;20171;-74
2021/12/09 05:45:29;;;;;;;60.70;33.70;;;;;;;2.66;67.37;94161.13;5067370;28;20173;-74
2021/12/09 05:47:55;;;;;;;56.23;35.10;;;;;;;2.90;67.18;94165.50;5066042;28;20269;-75
2021/12/09 05:50:20;;;;;;;31.37;20.00;;;;;;;2.36;68.08;94167.63;5067269;28;20167;-74
2021/12/09 05:52:46;;;;;;;44.57;28.33;;;;;;;2.41;68.89;94158.47;5067578;28;20550;-75
2021/12/09 05:55:11;;;;;;;60.07;34.43;;;;;;;2.60;69.00;94161.72;5067493;28;20170;-75
2021/12/09 05:57:37;;;;;;;63.33;34.00;;;;;;;2.74;67.94;94164.50;5065762;28;20274;-74
2021/12/09 06:00:06;;;;;;;53.77;32.77;;;;;;;2.43;69.30;94172.03;5067006;28;20175;-75
2021/12/09 06:02:32;;;;;;;57.25;33.10;;;;;;;2.70;68.81;94173.53;5067187;28;20166;-75
2021/12/09 06:04:58;;;;;;;60.38;36.33;;;;;;;2.81;67.99;94159.53;5066976;28;20162;-74
2021/12/09 06:07:24;;;;;;;19.37;14.03;;;;;;;2.69;67.70;94187.44;5066933;28;20655;-74
2021/12/09 06:09:49;;;;;;;67.13;37.80;;;;;;;2.44;68.78;94176.22;5067014;28;20960;-74
2021/12/09 06:12:15;;;;;;;65.67;35.60;;;;;;;2.59;68.58;94175.63;5067001;28;20300;-74
2021/12/09 06:14:40;;;;;;;68.13;37.17;;;;;;;2.87;67.65;94168.44;5066457;28;20209;-74
2021/12/09 06:17:06;;;;;;;70.13;40.00;;;;;;;2.76;67.92;94166.94;5067014;28;20166;-75
2021/12/09 06:19:32;;;;;;;63.77;38.97;;;;;;;2.97;67.23;94174.25;5066770;28;20223;-74
2021/12/09 06:21:57;;;;;;;67.80;38.70;;;;;;;3.02;67.09;94182.34;5066440;28;20169;-75
2021/12/09 06:24:23;;;;;;;58.97;37.70;;;;;;;2.81;67.98;94169.03;5066046;28;20215;-75
2021/12/09 06:26:48;;;;;;;65.63;36.70;;;;;;;3.01;67.38;94169.56;5065116;28;20261;-75
2021/12/09 06:29:14;;;;;;;68.90;38.20;;;;;;;3.31;66.41;94176.69;5066544;28;20171;-75
2021/12/09 06:31:39;;;;;;;59.60;36.57;;;;;;;3.50;66.19;94185.91;5066444;28;20210;-74
2021/12/09 06:34:05;;;;;;;66.27;40.70;;;;;;;3.74;65.67;94188.63;5066795;28;20167;-75
2021/12/09 06:36:30;;;;;;;60.20;37.60;;;;;;;3.79;64.43;94184.59;5066582;28;20178;-74
2021/12/09 06:38:56;;;;;;;61.43;38.50;;;;;;;3.88;64.21;94182.81;5066318;28;20516;-74
2021/12/09 06:41:22;;;;;;;57.50;36.40;;;;;;;4.07;63.89;94184.22;5066040;28;20170;-75
2021/12/09 06:43:47;;;;;;;58.77;37.80;;;;;;;4.01;63.79;94183.09;5066156;28;20181;-74
2021/12/09 06:46:13;;;;;;;67.70;37.17;;;;;;;4.14;63.02;94186.97;5066308;28;20171;-75
2021/12/09 06:48:40;;;;;;;52.53;34.93;;;;;;;4.13;63.54;94169.81;5066212;28;20170;-75
2021/12/09 06:51:06;;;;;;;58.77;36.90;;;;;;;4.31;63.22;94162.63;5066338;28;20733;-75
2021/12/09 06:56:54;;;;;;;60.20;36.63;;;;;;;4.20;63.34;94168.16;5066605;28;20419;-75
2021/12/09 06:59:20;;;;;;;55.47;37.70;;;;;;;4.49;62.28;94160.59;5066240;28;20421;-74
2021/12/09 07:01:46;;;;;;;62.10;39.43;;;;;;;4.48;62.42;94169.34;5065995;28;20171;-75
2021/12/09 07:04:11;;;;;;;64.57;41.63;;;;;;;4.24;62.58;94180.59;5065979;28;20417;-73
2021/12/09 07:06:37;;;;;;;64.60;43.03;;;;;;;4.49;61.00;94173.53;5064295;28;20258;-74
2021/12/09 07:09:04;;;;;;;63.27;41.70;;;;;;;4.08;62.76;94173.69;5066279;28;20178;-74
2021/12/09 07:11:33;;;;;;;64.90;41.70;;;;;;;4.14;62.88;94163.66;5066177;28;20473;-75
2021/12/09 07:13:58;;;;;;;77.23;44.60;;;;;;;4.49;61.46;94155.41;5065578;28;20419;-75
2021/12/09 07:16:24;;;;;;;66.67;43.83;;;;;;;4.24;62.45;94169.44;5065648;28;20468;-75
2021/12/09 07:18:50;;;;;;;73.50;44.43;;;;;;;4.17;62.07;94165.91;5065828;28;20245;-74
2021/12/09 07:21:17;;;;;;;73.63;44.00;;;;;;;4.44;61.72;94170.66;5065300;28;20231;-74
2021/12/09 07:23:43;;;;;;;66.63;44.17;;;;;;;4.24;62.04;94172.03;5065462;28;20437;-75
2021/12/09 07:26:08;;;;;;;74.47;43.60;;;;;;;4.21;61.52;94162.00;5065703;28;20839;-75
2021/12/09 07:28:34;;;;;;;61.57;42.10;;;;;;;4.42;61.19;94164.84;5065526;28;20175;-75
2021/12/09 07:31:00;;;;;;;70.53;44.63;;;;;;;3.65;62.68;94152.44;5065409;28;20218;-75
2021/12/09 07:33:25;;;;;;;54.33;34.77;;;;;;;3.08;64.16;94160.22;5065101;28;20244;-74
2021/12/09 07:35:51;;;;;;;75.13;41.40;;;;;;;2.68;66.32;94159.97;5064375;28;20177;-74
2021/12/09 07:38:16;;;;;;;71.63;38.20;;;;;;;2.39;66.93;94157.81;5065357;28;20198;-74
2021/12/09 07:40:42;;;;;;;58.50;33.97;;;;;;;2.41;67.77;94152.47;5065273;28;20190;-75
2021/12/09 07:43:07;;;;;;;22.03;14.73;;;;;;;2.45;67.78;94159.75;5065368;28;20186;-74
2021/12/09 07:45:33;;;;;;;74.33;44.30;;;;;;;2.48;68.01;94163.78;5065444;28;20166;-74
2021/12/09 07:47:59;;;;;;;78.37;41.97;;;;;;;3.34;65.43;94162.66;5065309;28;20171;-74
2021/12/09 07:50:28;;;;;;;79.23;44.03;;;;;;;3.71;65.01;94153.56;5065411;28;20409;-75
2021/12/09 07:52:54;;;;;;;78.00;42.92;;;;;;;4.26;62.94;94154.53;5065067;28;20884;-74
2021/12/09 07:55:21;;;;;;;80.70;46.30;;;;;;;4.14;63.14;94154.09;5065352;28;20166;-75
2021/12/09 07:57:47;;;;;;;69.85;40.20;;;;;;;4.18;62.01;94162.34;5063668;28;20170;-74
2021/12/09 08:00:19;;;;;;;85.27;47.20;;;;;;;4.36;62.95;94157.72;5064445;28;20170;-74
2021/12/09 08:02:46;;;;;;;75.93;45.03;;;;;;;4.69;61.68;94140.25;5065115;28;20417;-75
2021/12/09 08:05:13;;;;;;;80.45;43.85;;;;;;;4.47;62.21;94147.00;5064988;28;20173;-75
2021/12/09 08:07:41;;;;;;;84.57;48.70;;;;;;;4.56;61.55;94145.19;5063670;28;20511;-80
2021/12/09 08:10:09;;;;;;;86.73;52.00;;;;;;;2.88;65.60;94145.03;5064786;28;20421;-73
2021/12/09 08:12:34;;;;;;;74.93;44.83;;;;;;;3.68;64.05;94154.69;5064822;28;20471;-74
2021/12/09 08:15:00;;;;;;;84.63;45.60;;;;;;;3.76;64.07;94156.47;5065099;28;20413;-73
2021/12/09 08:20:11;;;;;;;80.70;47.77;;;;;;;4.26;62.70;94152.75;5064881;28;20500;-73
2021/12/09 08:22:37;;;;;;;74.53;44.30;;;;;;;4.39;62.12;94146.25;5063224;28;20511;-74
2021/12/09 08:25:07;;;;;;;78.80;40.80;;;;;;;4.48;61.44;94153.00;5064476;28;20524;-73
2021/12/09 08:27:34;;;;;;;72.37;45.07;;;;;;;3.82;63.94;94152.41;5063497;28;20409;-75
2021/12/09 08:30:05;;;;;;;70.13;38.50;;;;;;;4.07;62.39;94171.28;5064957;28;20441;-74
2021/12/09 08:32:31;;;;;;;73.83;44.97;;;;;;;4.12;63.58;94158.66;5064393;28;20441;-72
2021/12/09 08:34:58;;;;;;;76.50;45.57;;;;;;;4.08;63.37;94144.44;5064496;28;20417;-74
2021/12/09 08:37:23;;;;;;;73.50;39.57;;;;;;;4.61;62.05;94152.44;5064424;28;20468;-75
2021/12/09 08:39:49;;;;;;;83.77;47.77;;;;;;;4.53;62.00;94131.75;5064591;28;20907;-72
2021/12/09 08:42:15;;;;;;;83.23;48.50;;;;;;;5.08;61.51;94147.16;5064672;28;20226;-74
2021/12/09 08:44:41;;;;;;;81.30;47.47;;;;;;;5.59;59.50;94136.19;5064454;28;20636;-74
2021/12/09 08:47:07;;;;;;;79.40;44.93;;;;;;;5.08;60.32;94133.38;5064775;28;20178;-74
2021/12/09 08:49:32;;;;;;;80.10;48.83;;;;;;;5.31;59.62;94127.38;5068741;28;20439;-73
2021/12/09 08:51:58;;;;;;;87.53;45.83;;;;;;;5.06;58.80;94130.13;5067967;28;20453;-73
2021/12/09 08:54:23;;;;;;;79.23;45.03;;;;;;;5.17;59.56;94126.34;5068720;28;20170;-74
2021/12/09 08:56:51;;;;;;;70.77;36.67;;;;;;;3.52;64.40;94146.94;5068057;28;20277;-73
2021/12/09 08:59:21;;;;;;;71.07;33.67;;;;;;;3.41;65.15;94129.19;5066528;28;20171;-73
2021/12/09 09:01:47;;;;;;;89.43;48.57;;;;;;;4.52;62.73;94117.22;5068206;28;20412;-73
2021/12/09 09:04:12;;;;;;;84.17;47.73;;;;;;;5.30;60.28;94115.38;5068457;28;20500;-72
2021/12/09 09:06:49;;;;;;;83.10;41.57;;;;;;;4.49;61.56;94113.97;5067922;28;20178;-72
2021/12/09 09:09:14;;;;;;;82.83;44.70;;;;;;;4.97;61.15;94110.44;5068430;28;20166;-73
2021/12/09 09:11:44;;;;;;;97.37;49.50;;;;;;;4.60;62.37;94104.19;5071394;28;20467;-73
2021/12/09 09:14:10;;;;;;;83.17;49.83;;;;;;;5.14;61.51;94111.94;5071651;28;20162;-73
2021/12/09 09:16:35;;;;;;;89.57;50.20;;;;;;;5.30;60.10;94092.84;5068012;28;20451;-72
2021/12/09 09:19:01;;;;;;;95.20;51.50;;;;;;;5.34;59.67;94090.72;5067825;28;20219;-72
2021/12/09 09:21:28;;;;;;;82.37;46.00;;;;;;;5.65;58.65;94088.78;5067875;28;20230;-73
2021/12/09 09:23:55;;;;;;;98.60;51.50;;;;;;;5.48;59.56;94076.94;5067658;28;20166;-74
2021/12/09 09:26:20;;;;;;;89.97;48.70;;;;;;;5.87;59.45;94070.72;5067277;28;20415;-73
2021/12/09 09:28:46;;;;;;;83.80;47.30;;;;;;;5.71;59.04;94086.44;5067765;28;20416;-73
2021/12/09 09:31:12;;;;;;;93.37;47.17;;;;;;;5.92;58.42;94083.13;5067332;28;20194;-72
2021/12/09 09:33:38;;;;;;;87.87;52.00;;;;;;;6.40;57.59;94083.59;5065954;28;20417;-73
2021/12/09 09:36:04;;;;;;;90.10;51.33;;;;;;;6.86;56.80;94069.47;5067555;28;20167;-73
2021/12/09 09:38:31;;;;;;;91.47;49.67;;;;;;;7.09;55.91;94053.66;5067421;28;20234;-73
2021/12/09 09:41:09;;;;;;;57.57;32.30;;;;;;;6.40;56.16;94089.56;5065853;28;20413;-72
2021/12/09 09:46:11;;;;;;;85.00;51.50;;;;;;;6.64;56.75;94075.47;5067345;28;20477;-73
2021/12/09 09:48:37;;;;;;;92.60;50.27;;;;;;;6.54;57.72;94040.34;5067598;28;20417;-72
2021/12/09 09:51:05;;;;;;;68.73;35.40;;;;;;;6.20;57.00;94075.53;5065778;28;20445;-72
2021/12/09 09:53:35;;;;;;;91.87;49.27;;;;;;;6.29;58.89;94045.09;5067335;28;20440;-72
2021/12/09 09:56:04;;;;;;;84.17;53.20;;;;;;;6.57;57.66;94025.19;5067275;28;20400;-73
2021/12/09 09:58:30;;;;;;;82.17;49.53;;;;;;;6.80;58.45;94037.22;5066223;28;20412;-72
2021/12/09 10:00:55;;;;;;;88.00;48.70;;;;;;;7.14;55.42;94035.69;5065759;28;20884;-72
2021/12/09 10:03:27;;;;;;;77.23;47.20;;;;;;;7.36;56.86;94018.22;5066861;28;20197;-73
2021/12/09 10:05:57;;;;;;;79.23;48.47;;;;;;;7.55;56.69;94011.53;5067138;28;20151;-74
2021/12/09 10:08:23;;;;;;;43.73;25.43;;;;;;;7.38;52.77;94031.84;5067106;28;20417;-73
2021/12/09 10:10:48;;;;;;;87.10;45.77;;;;;;;6.82;57.38;94025.63;5066569;28;20452;-73
2021/12/09 10:13:18;;;;;;;77.40;45.83;;;;;;;7.35;56.02;94011.44;5066795;28;20428;-73
2021/12/09 10:15:50;;;;;;;75.40;44.97;;;;;;;7.46;55.28;94015.31;5066760;28;20707;-74
2021/12/09 10:18:33;;;;;;;83.00;45.90;;;;;;;8.27;53.96;94012.09;5066753;28;20468;-73
2021/12/09 10:20:59;;;;;;;74.57;45.33;;;;;;;7.70;55.26;94012.25;5066621;28;20405;-73
2021/12/09 10:23:36;;;;;;;85.30;49.60;;;;;;;7.92;53.97;94004.34;5066606;28;20412;-73
2021/12/09 10:26:34;;;;;;;74.07;44.87;;;;;;;8.27;52.60;94010.31;5066203;28;20385;-74
2021/12/09 10:29:08;;;;;;;69.73;42.40;;;;;;;7.59;53.87;93986.75;5066453;28;20420;-74
2021/12/09 10:31:52;;;;;;;66.60;36.97;;;;;;;7.36;55.24;94021.66;5066498;28;20440;-73
2021/12/09 10:34:36;;;;;;;76.43;44.27;;;;;;;7.78;54.40;94008.69;5066438;28;20413;-73
2021/12/09 10:37:22;;;;;;;68.47;42.30;;;;;;;7.46;54.33;94010.91;5066032;28;20987;-72
2021/12/09 10:39:51;;;;;;;63.47;39.63;;;;;;;7.60;54.14;93989.16;5065788;28;20425;-72
2021/12/09 10:42:27;;;;;;;65.63;43.50;;;;;;;8.21;52.19;93974.56;5066232;28;20466;-73
2021/12/09 10:45:16;;;;;;;71.70;45.90;;;;;;;7.94;53.93;93987.50;5067280;28;20411;-72
2021/12/09 10:48:04;;;;;;;69.27;45.87;;;;;;;8.66;51.75;93987.94;5066090;28;20504;-72
2021/12/09 10:50:41;;;;;;;65.60;44.33;;;;;;;9.25;50.62;93993.38;5065857;28;20960;-73
2021/12/09 10:56:23;;;;;;;71.37;45.40;;;;;;;9.64;50.32;93969.03;5066070;28;20408;-73
2021/12/09 10:58:49;;;;;;;67.77;45.13;;;;;;;9.60;49.14;93978.28;5065718;28;20596;-72
2021/12/09 11:01:21;;;;;;;75.33;46.17;;;;;;;9.58;49.75;93954.19;5065784;28;20405;-73
2021/12/09 11:03:55;;;;;;;69.43;44.60;;;;;;;9.95;48.24;93960.47;5064385;28;20174;-73
2021/12/09 11:06:30;;;;;;;71.43;44.60;;;;;;;10.04;49.06;93952.41;5064311;28;20420;-72
2021/12/09 11:08:59;;;;;;;67.87;47.00;;;;;;;9.30;50.11;93960.44;5065742;28;20413;-73
2021/12/09 11:11:34;;;;;;;78.57;49.07;;;;;;;9.57;49.49;93952.56;5064085;28;20463;-79
2021/12/09 11:14:16;;;;;;;83.40;52.80;;;;;;;9.32;50.13;93958.44;5065739;28;20482;-73
2021/12/09 11:17:02;;;;;;;91.90;54.90;;;;;;;8.73;51.38;93967.91;5064220;28;20427;-72
2021/12/09 11:19:38;;;;;;;93.43;56.23;;;;;;;9.13;51.37;93949.63;5065484;28;20460;-73
2021/12/09 11:22:18;;;;;;;93.23;59.17;;;;;;;8.84;51.17;93950.03;5064204;28;20417;-73
2021/12/09 11:24:47;;;;;;;96.73;60.90;;;;;;;9.19;50.32;93959.25;5065635;28;20752;-73
2021/12/09 11:27:18;;;;;;;87.17;57.73;;;;;;;8.70;50.70;93951.84;5065540;28;20409;-73
2021/12/09 11:29:48;;;;;;;93.27;61.53;;;;;;;8.14;53.24;93966.75;5065287;28;20397;-73
2021/12/09 11:34:50;;;;;;;103.20;64.67;;;;;;;8.12;53.36;93966.16;5065444;28;20488;-73
2021/12/09 11:40:02;;;;;;;110.63;64.70;;;;;;;8.58;52.45;93949.81;5065341;28;20436;-73
2021/12/09 11:43:12;;;;;;;97.10;63.23;;;;;;;8.26;53.65;93966.97;5064982;28;20386;-73
2021/12/09 11:45:23;;;;;;;104.90;63.40;;;;;;;8.73;52.83;93957.47;5064488;28;20421;-73